Time;durP1;ratioP1;P1;durP2;ratioP2;P2;SDS_P1;SDS_P2;PMS_P1;PMS_P2;Temp;Humidity;BMP_temperature;BMP_pressure;BME280_temperature;BME280_humidity;BME280_pressure;Samples;Min_cycle;Max_cycle;Signal;HPM_P1;HPM_P2
2022/12/30 00:01:33;;;;;;;46.80;27.10;;;0.40;99.90;;;;;;5112535;28;20098;-80
2022/12/30 00:04:39;;;;;;;50.65;26.13;;;0.40;99.90;;;;;;5105057;28;20041;-81
2022/12/30 00:07:23;;;;;;;48.47;26.00;;;0.40;99.90;;;;;;5112424;28;20387;-78
2022/12/30 00:09:50;;;;;;;54.60;26.75;;;0.50;99.90;;;;;;5112369;28;20027;-80
2022/12/30 00:33:47;;;;;;;53.15;25.58;;;0.50;99.90;;;;;;5105387;28;20070;-77
2022/12/30 00:36:13;;;;;;;46.03;25.65;;;0.50;99.90;;;;;;5100352;28;20111;-79
2022/12/30 00:38:58;;;;;;;52.35;27.83;;;0.40;99.90;;;;;;5116667;28;20019;-78
2022/12/30 00:44:27;;;;;;;46.85;24.50;;;0.50;99.90;;;;;;5116097;28;20030;-77
2022/12/30 00:46:54;;;;;;;52.80;27.48;;;0.40;99.90;;;;;;5116163;28;20034;-79
2022/12/30 00:57:51;;;;;;;50.50;26.08;;;0.40;99.90;;;;;;5116176;28;20030;-79
2022/12/30 01:00:17;;;;;;;56.70;30.17;;;0.40;99.90;;;;;;5125841;28;20019;-78
2022/12/30 01:03:02;;;;;;;55.15;27.73;;;0.40;99.90;;;;;;5111426;28;20314;-78
2022/12/30 01:06:05;;;;;;;53.90;26.15;;;0.40;99.90;;;;;;5115899;28;20402;-78
2022/12/30 01:08:50;;;;;;;49.15;26.65;;;0.50;99.90;;;;;;5115755;28;20015;-77
2022/12/30 01:11:16;;;;;;;48.17;26.38;;;0.50;99.90;;;;;;5115569;28;20028;-78
2022/12/30 01:13:42;;;;;;;54.90;26.23;;;0.50;99.90;;;;;;5115490;28;20038;-77
2022/12/30 01:16:13;;;;;;;52.65;26.77;;;0.50;99.90;;;;;;5097251;28;20354;-76
2022/12/30 01:18:40;;;;;;;52.40;26.80;;;0.50;99.90;;;;;;5096949;28;20027;-77
2022/12/30 01:21:24;;;;;;;57.97;31.20;;;0.50;99.90;;;;;;5115345;28;20031;-77
2022/12/30 01:23:50;;;;;;;59.40;29.95;;;0.50;99.90;;;;;;5115328;28;20396;-78
2022/12/30 01:26:35;;;;;;;51.05;27.70;;;0.50;99.90;;;;;;5114272;28;20075;-76
2022/12/30 01:29:30;;;;;;;54.92;27.75;;;0.50;99.90;;;;;;5113845;28;20023;-77
2022/12/30 01:32:15;;;;;;;63.83;28.45;;;0.50;99.90;;;;;;5114068;28;20019;-78
2022/12/30 01:34:41;;;;;;;58.22;29.00;;;0.50;99.90;;;;;;5101142;28;20039;-78
2022/12/30 01:37:45;;;;;;;51.65;28.00;;;0.50;99.90;;;;;;5113888;28;20065;-78
2022/12/30 01:40:29;;;;;;;60.28;28.65;;;0.50;99.90;;;;;;5105372;28;20030;-78
2022/12/30 01:42:55;;;;;;;59.42;30.73;;;0.50;99.90;;;;;;5113632;28;20477;-76
2022/12/30 01:45:28;;;;;;;56.63;29.60;;;0.50;99.90;;;;;;5113706;28;20034;-78
2022/12/30 01:48:04;;;;;;;56.50;29.67;;;0.50;99.90;;;;;;5113443;28;20012;-80
2022/12/30 01:50:50;;;;;;;56.67;28.95;;;0.50;99.90;;;;;;5113745;28;20365;-77
2022/12/30 01:53:24;;;;;;;59.45;29.85;;;0.50;99.90;;;;;;5113529;28;20055;-78
2022/12/30 01:55:49;;;;;;;58.25;28.75;;;0.50;99.90;;;;;;5095884;28;20023;-78
2022/12/30 01:58:41;;;;;;;59.28;29.13;;;0.50;99.90;;;;;;5113472;28;20015;-76
2022/12/30 02:01:44;;;;;;;59.65;28.15;;;0.50;99.90;;;;;;5113418;28;20015;-77
2022/12/30 02:04:37;;;;;;;57.67;28.90;;;0.50;99.90;;;;;;5109315;28;20038;-79
2022/12/30 02:07:27;;;;;;;54.85;28.48;;;0.50;99.90;;;;;;5101182;28;20023;-78
2022/12/30 02:10:11;;;;;;;61.92;33.03;;;0.50;99.90;;;;;;5113229;28;20469;-78
2022/12/30 02:12:56;;;;;;;68.47;32.33;;;0.50;99.90;;;;;;5113364;28;20385;-79
2022/12/30 02:15:26;;;;;;;62.80;33.03;;;0.50;99.90;;;;;;5099336;28;20753;-78
2022/12/30 02:18:35;;;;;;;69.05;31.25;;;0.50;99.90;;;;;;5113687;28;20035;-79
2022/12/30 02:21:38;;;;;;;61.28;29.35;;;0.50;99.90;;;;;;5069106;28;20096;-79
2022/12/30 02:27:19;;;;;;;63.17;31.10;;;0.50;99.90;;;;;;5083255;27;1431503;-78
2022/12/30 02:30:10;;;;;;;67.03;30.27;;;0.50;99.90;;;;;;5107314;28;20066;-78
2022/12/30 02:33:03;;;;;;;59.55;30.35;;;0.50;99.90;;;;;;5130358;27;20072;-77
2022/12/30 02:36:07;;;;;;;61.50;28.65;;;0.50;99.90;;;;;;5129192;28;20041;-80
2022/12/30 02:38:51;;;;;;;63.00;31.10;;;0.60;99.90;;;;;;5127416;28;20491;-78
2022/12/30 02:44:36;;;;;;;;;;;0.50;99.90;;;;;;5132028;28;20056;-78
2022/12/30 02:47:15;;;;;;;62.92;30.92;;;0.50;99.90;;;;;;5130105;27;19920;-79
2022/12/30 02:52:13;;;;;;;55.40;29.55;;;0.50;99.90;;;;;;5125232;27;20018;-80
2022/12/30 02:52:49;;;;;;;67.55;32.70;;;0.50;99.90;;;;;;5123766;28;20040;-79
2022/12/30 02:55:16;;;;;;;62.30;29.80;;;0.50;99.90;;;;;;5129887;28;20098;-78
2022/12/30 02:57:42;;;;;;;78.68;35.47;;;0.50;99.90;;;;;;5129976;27;20095;-79
2022/12/30 03:06:35;;;;;;;72.32;33.85;;;0.60;99.90;;;;;;5129850;28;20088;-79
2022/12/30 03:09:12;;;;;;;71.65;31.95;;;0.50;99.90;;;;;;5109397;28;20061;-78
2022/12/30 03:12:05;;;;;;;62.45;32.42;;;0.50;99.90;;;;;;5129608;27;20023;-79
2022/12/30 03:15:00;;;;;;;71.20;30.67;;;0.50;99.90;;;;;;5129549;28;20024;-79
2022/12/30 03:17:33;;;;;;;66.80;31.38;;;0.50;99.90;;;;;;5106691;28;20031;-77
2022/12/30 03:20:19;;;;;;;67.53;30.85;;;0.50;99.90;;;;;;5130050;27;20047;-78
2022/12/30 03:29:14;;;;;;;62.03;30.08;;;0.50;99.90;;;;;;5110255;28;20038;-78
2022/12/30 03:32:17;;;;;;;78.20;33.35;;;0.50;99.90;;;;;;5128887;28;20031;-76
2022/12/30 03:35:20;;;;;;;60.00;29.75;;;0.50;99.90;;;;;;5106088;28;20108;-74
2022/12/30 03:38:06;;;;;;;75.72;33.85;;;0.40;99.90;;;;;;5118712;28;20086;-77
2022/12/30 03:40:51;;;;;;;64.03;31.48;;;0.50;99.90;;;;;;5114434;28;20019;-76
2022/12/30 03:43:54;;;;;;;68.20;32.85;;;0.40;99.90;;;;;;5091259;28;20051;-76
2022/12/30 03:46:27;;;;;;;70.32;30.17;;;0.50;99.90;;;;;;5115082;28;20039;-78
2022/12/30 03:49:11;;;;;;;60.63;33.50;;;0.50;99.90;;;;;;5115050;28;20080;-76
2022/12/30 03:51:55;;;;;;;74.43;36.05;;;0.50;99.90;;;;;;5088080;28;20042;-76
2022/12/30 03:54:21;;;;;;;71.63;29.27;;;0.50;99.90;;;;;;5114804;28;20072;-76
2022/12/30 03:56:47;;;;;;;71.07;32.28;;;0.50;99.90;;;;;;5115122;28;20099;-77
2022/12/30 03:59:50;;;;;;;79.88;36.13;;;0.50;99.90;;;;;;5114739;28;20035;-77
2022/12/30 04:02:35;;;;;;;74.47;32.97;;;0.50;99.90;;;;;;5094371;28;20019;-77
2022/12/30 04:05:19;;;;;;;71.03;32.53;;;0.50;99.90;;;;;;5112343;28;20453;-77
2022/12/30 04:07:45;;;;;;;65.72;32.20;;;0.50;99.90;;;;;;5114796;28;20106;-76
2022/12/30 04:10:48;;;;;;;77.00;33.65;;;0.50;99.90;;;;;;5114600;28;20090;-77
2022/12/30 04:13:32;;;;;;;62.78;32.38;;;0.50;99.90;;;;;;5085804;28;20027;-78
2022/12/30 04:15:58;;;;;;;72.75;35.45;;;0.50;99.90;;;;;;5114541;28;20482;-79
2022/12/30 04:18:43;;;;;;;75.70;32.90;;;0.50;99.90;;;;;;5113093;28;20115;-77
2022/12/30 04:21:27;;;;;;;69.72;31.90;;;0.50;99.90;;;;;;5105292;28;20024;-76
2022/12/30 04:23:53;;;;;;;72.30;33.25;;;0.60;99.90;;;;;;5111867;28;20530;-76
2022/12/30 04:26:18;;;;;;;77.85;37.72;;;0.60;99.90;;;;;;5105591;28;20083;-77
2022/12/30 04:29:03;;;;;;;70.38;35.80;;;0.50;99.90;;;;;;5113878;28;20026;-77
2022/12/30 04:31:48;;;;;;;75.45;35.63;;;0.50;99.90;;;;;;5113924;28;20396;-78
2022/12/30 04:34:14;;;;;;;71.22;36.03;;;0.60;99.90;;;;;;5113870;28;20098;-77
2022/12/30 04:37:18;;;;;;;74.93;36.55;;;0.60;99.90;;;;;;5114082;28;20011;-77
2022/12/30 04:39:44;;;;;;;61.25;32.42;;;0.60;99.90;;;;;;5088236;28;20008;-78
2022/12/30 04:42:09;;;;;;;80.25;37.47;;;0.50;99.90;;;;;;5113798;28;20048;-78
2022/12/30 04:44:35;;;;;;;70.50;34.67;;;0.60;99.90;;;;;;5113488;28;20015;-77
2022/12/30 04:47:20;;;;;;;68.10;33.33;;;0.60;99.90;;;;;;5113588;28;20032;-76
2022/12/30 04:49:46;;;;;;;72.35;36.03;;;0.60;99.90;;;;;;5112606;28;20027;-76
2022/12/30 04:52:11;;;;;;;73.93;35.78;;;0.50;99.90;;;;;;5113622;28;20063;-77
2022/12/30 04:54:56;;;;;;;74.97;38.08;;;0.50;99.90;;;;;;5109980;28;20165;-76
2022/12/30 04:57:40;;;;;;;71.65;37.05;;;0.50;99.90;;;;;;5105598;28;20583;-76
2022/12/30 05:00:08;;;;;;;69.28;36.92;;;0.50;99.90;;;;;;5086515;28;20027;-77
2022/12/30 05:02:34;;;;;;;80.07;34.42;;;0.60;99.90;;;;;;5110113;28;20038;-76
2022/12/30 05:05:19;;;;;;;70.28;36.22;;;0.60;99.90;;;;;;5112403;28;20052;-76
2022/12/30 05:07:45;;;;;;;77.18;38.70;;;0.60;99.90;;;;;;5112056;28;20023;-77
2022/12/30 05:10:48;;;;;;;73.00;37.33;;;0.50;99.90;;;;;;5113361;28;20098;-78
2022/12/30 05:13:14;;;;;;;67.50;34.03;;;0.50;99.90;;;;;;5113252;28;20099;-78
2022/12/30 05:15:40;;;;;;;69.30;33.15;;;0.50;99.90;;;;;;5113450;27;20496;-79
2022/12/30 05:18:24;;;;;;;63.75;30.95;;;0.50;99.90;;;;;;5113200;28;20032;-76
2022/12/30 05:21:09;;;;;;;65.70;34.75;;;0.50;99.90;;;;;;5107578;28;20051;-78
2022/12/30 05:27:16;;;;;;;65.43;32.22;;;0.50;99.90;;;;;;5099740;28;20480;-76
2022/12/30 05:30:19;;;;;;;67.22;35.13;;;0.50;99.90;;;;;;5088954;28;20043;-77
2022/12/30 05:32:58;;;;;;;65.28;33.38;;;0.50;99.90;;;;;;5101719;28;20021;-77
2022/12/30 05:36:01;;;;;;;70.05;36.38;;;0.40;99.90;;;;;;5098990;28;20060;-76
2022/12/30 05:38:27;;;;;;;73.78;34.78;;;0.50;99.90;;;;;;5080961;28;20028;-77
2022/12/30 05:41:30;;;;;;;80.05;37.50;;;0.50;99.90;;;;;;5108688;28;20472;-77
2022/12/30 05:44:14;;;;;;;67.55;34.78;;;0.50;99.90;;;;;;5112470;28;20019;-77
2022/12/30 05:47:17;;;;;;;68.20;31.95;;;0.50;99.90;;;;;;5088447;28;20032;-77
2022/12/30 05:50:02;;;;;;;71.35;34.30;;;0.50;99.90;;;;;;5112956;28;20503;-76
2022/12/30 05:52:47;;;;;;;68.78;30.40;;;0.50;99.90;;;;;;5112677;28;20129;-76
2022/12/30 05:55:31;;;;;;;65.90;30.67;;;0.40;99.90;;;;;;5079735;28;20059;-77
2022/12/30 05:58:15;;;;;;;65.70;35.53;;;0.40;99.90;;;;;;5093705;28;20456;-78
2022/12/30 06:00:41;;;;;;;68.93;31.02;;;0.40;99.90;;;;;;5091450;28;20537;-78
2022/12/30 06:03:28;;;;;;;56.78;26.38;;;0.40;99.90;;;;;;5087386;28;20104;-79
2022/12/30 06:05:58;;;;;;;55.45;27.95;;;0.40;99.90;;;;;;5093812;28;20043;-78
2022/12/30 06:08:43;;;;;;;63.53;32.47;;;0.40;99.90;;;;;;5091949;28;20024;-76
2022/12/30 06:11:08;;;;;;;55.05;25.90;;;0.30;99.90;;;;;;5085505;28;20028;-79
2022/12/30 06:13:53;;;;;;;53.47;27.70;;;0.30;99.90;;;;;;5091593;28;20074;-78
2022/12/30 06:16:37;;;;;;;73.57;30.10;;;0.30;99.90;;;;;;5085605;28;20020;-78
2022/12/30 06:19:22;;;;;;;57.50;27.15;;;0.30;99.90;;;;;;5091588;28;20020;-77
2022/12/30 06:21:48;;;;;;;63.72;27.13;;;0.40;99.90;;;;;;5089760;28;20477;-78
2022/12/30 06:24:13;;;;;;;47.58;24.52;;;0.30;99.90;;;;;;5100650;28;20021;-77
2022/12/30 06:26:39;;;;;;;57.72;27.02;;;0.30;99.90;;;;;;5094105;28;20125;-80
2022/12/30 06:29:05;;;;;;;56.58;25.98;;;0.30;99.90;;;;;;5112037;28;20377;-78
2022/12/30 06:31:31;;;;;;;55.30;25.80;;;0.30;99.90;;;;;;5112771;28;20110;-78
2022/12/30 06:34:34;;;;;;;47.25;25.25;;;0.30;99.90;;;;;;5113429;28;20492;-78
2022/12/30 06:37:18;;;;;;;47.33;25.10;;;0.40;99.90;;;;;;5111839;28;20890;-77
2022/12/30 06:40:03;;;;;;;45.45;24.13;;;0.30;99.90;;;;;;5086457;28;20091;-79
2022/12/30 06:42:29;;;;;;;48.05;23.55;;;0.30;99.90;;;;;;5111649;28;20066;-77
2022/12/30 06:45:13;;;;;;;49.50;24.30;;;0.30;99.90;;;;;;5111524;28;20051;-78
2022/12/30 06:47:57;;;;;;;43.33;24.65;;;0.40;99.90;;;;;;5103154;28;20043;-77
2022/12/30 06:50:42;;;;;;;47.55;19.75;;;0.40;99.90;;;;;;5082002;28;20032;-80
2022/12/30 06:53:08;;;;;;;48.28;25.58;;;0.40;99.90;;;;;;5091350;28;20408;-78
2022/12/30 06:55:52;;;;;;;49.00;22.60;;;0.40;99.90;;;;;;5091561;28;20016;-78
2022/12/30 06:58:37;;;;;;;53.25;28.20;;;0.40;99.90;;;;;;5095557;28;20137;-79
2022/12/30 07:01:40;;;;;;;50.03;25.55;;;0.40;99.90;;;;;;5091347;28;20085;-78
2022/12/30 07:04:06;;;;;;;52.08;26.77;;;0.40;99.90;;;;;;5091088;28;20115;-79
2022/12/30 07:06:51;;;;;;;44.28;23.13;;;0.40;99.90;;;;;;5092675;28;20520;-76
2022/12/30 07:09:17;;;;;;;46.00;24.67;;;0.50;99.90;;;;;;5105992;28;20039;-77
2022/12/30 07:11:43;;;;;;;45.55;23.70;;;0.70;99.90;;;;;;5094079;28;20074;-77
2022/12/30 07:14:28;;;;;;;43.72;22.88;;;0.40;99.90;;;;;;5107728;28;20015;-82
2022/12/30 07:16:53;;;;;;;47.25;23.90;;;0.40;99.90;;;;;;5100440;28;20024;-78
2022/12/30 07:19:19;;;;;;;48.22;23.15;;;0.70;99.90;;;;;;5113085;28;20042;-78
2022/12/30 07:21:45;;;;;;;41.25;21.52;;;0.70;99.90;;;;;;5098029;28;20034;-79
2022/12/30 07:24:29;;;;;;;44.65;22.15;;;0.40;99.90;;;;;;5114229;28;20027;-77
2022/12/30 07:26:55;;;;;;;40.00;21.48;;;0.40;99.90;;;;;;5114963;28;20051;-77
2022/12/30 07:29:39;;;;;;;42.78;24.73;;;0.40;99.90;;;;;;5115253;28;20026;-77
2022/12/30 07:32:24;;;;;;;44.22;23.50;;;0.40;99.90;;;;;;5113884;28;20032;-79
2022/12/30 07:35:08;;;;;;;42.47;23.55;;;0.50;99.90;;;;;;5090361;28;20089;-76
2022/12/30 07:37:54;;;;;;;41.17;23.10;;;0.50;99.90;;;;;;5111930;28;20723;-77
2022/12/30 07:40:38;;;;;;;40.72;22.85;;;0.40;99.90;;;;;;5106666;28;20098;-78
2022/12/30 07:43:22;;;;;;;44.72;23.75;;;0.40;99.90;;;;;;5079459;28;20028;-76
2022/12/30 07:46:25;;;;;;;40.78;22.33;;;0.50;99.90;;;;;;5110202;28;20473;-77
2022/12/30 07:48:51;;;;;;;38.40;22.00;;;0.70;99.90;;;;;;5115290;28;20027;-78
2022/12/30 07:51:18;;;;;;;39.92;21.65;;;0.50;99.90;;;;;;5114945;28;20015;-78
2022/12/30 07:53:44;;;;;;;44.00;20.07;;;0.70;99.90;;;;;;5114721;28;20464;-78
2022/12/30 07:56:13;;;;;;;36.67;22.70;;;0.70;99.90;;;;;;5114406;28;20030;-77
2022/12/30 07:58:39;;;;;;;40.25;22.17;;;0.40;99.90;;;;;;5106039;28;20043;-78
2022/12/30 08:01:24;;;;;;;36.08;21.05;;;0.60;99.90;;;;;;5109366;28;20039;-78
2022/12/30 08:04:09;;;;;;;39.08;22.10;;;0.40;99.90;;;;;;5111671;28;20404;-78
2022/12/30 08:07:12;;;;;;;35.75;20.30;;;0.70;99.90;;;;;;5113150;28;20035;-79
2022/12/30 08:09:38;;;;;;;32.45;19.70;;;0.70;99.90;;;;;;5112842;28;20027;-77
2022/12/30 08:12:41;;;;;;;26.30;15.85;;;0.70;99.90;;;;;;5105127;28;20073;-78
2022/12/30 08:15:07;;;;;;;37.15;21.02;;;0.70;99.90;;;;;;5093792;28;20012;-76
2022/12/30 08:17:51;;;;;;;33.58;19.63;;;0.40;99.90;;;;;;5093860;28;20026;-78
2022/12/30 08:20:18;;;;;;;28.20;18.83;;;0.70;99.90;;;;;;5093604;28;20095;-77
2022/12/30 08:22:43;;;;;;;28.48;19.00;;;0.50;99.90;;;;;;5100750;28;20035;-77
2022/12/30 08:25:09;;;;;;;27.85;16.35;;;0.50;99.90;;;;;;5113881;28;20039;-79
2022/12/30 08:27:54;;;;;;;37.70;20.23;;;0.70;99.90;;;;;;5109227;28;20079;-82
2022/12/30 08:30:57;;;;;;;28.38;18.08;;;0.70;99.90;;;;;;5107638;28;20038;-82
2022/12/30 08:33:23;;;;;;;29.95;18.27;;;0.60;99.90;;;;;;5085677;28;20131;-82
2022/12/30 08:35:48;;;;;;;34.28;17.95;;;0.70;99.90;;;;;;5093654;28;20031;-82
2022/12/30 08:38:34;;;;;;;30.20;17.55;;;0.50;99.90;;;;;;5093688;28;20077;-81
2022/12/30 08:41:38;;;;;;;25.20;15.93;;;0.80;99.90;;;;;;5093417;28;20444;-82
2022/12/30 08:44:41;;;;;;;26.55;14.93;;;0.80;99.90;;;;;;5093370;28;20032;-82
2022/12/30 08:47:07;;;;;;;27.23;16.23;;;0.80;99.90;;;;;;5092340;28;20040;-82
2022/12/30 08:49:36;;;;;;;28.23;15.23;;;0.90;99.90;;;;;;5094441;28;20024;-83
2022/12/30 08:52:20;;;;;;;32.97;17.77;;;0.90;99.90;;;;;;5101469;28;20104;-82
2022/12/30 08:55:05;;;;;;;30.83;17.38;;;0.80;99.90;;;;;;5105907;28;20370;-83
2022/12/30 08:57:30;;;;;;;27.85;16.70;;;0.90;99.90;;;;;;5094899;28;20492;-83
2022/12/30 09:00:15;;;;;;;28.73;15.85;;;0.60;99.90;;;;;;5093070;28;20162;-82
2022/12/30 09:02:59;;;;;;;36.47;18.38;;;0.90;99.90;;;;;;5093649;28;20042;-83
2022/12/30 09:06:02;;;;;;;32.00;17.35;;;0.80;99.90;;;;;;5085618;28;20111;-82
2022/12/30 09:09:06;;;;;;;26.05;15.80;;;0.90;99.90;;;;;;5093127;28;20103;-84
2022/12/30 09:11:51;;;;;;;20.85;12.32;;;0.60;99.90;;;;;;5089425;28;20044;-79
2022/12/30 09:14:35;;;;;;;28.38;16.48;;;1.00;99.90;;;;;;5100439;28;20036;-79
2022/12/30 09:17:19;;;;;;;25.85;15.43;;;0.60;99.90;;;;;;5093262;28;20034;-80
2022/12/30 09:20:04;;;;;;;27.23;16.20;;;0.60;99.90;;;;;;5087155;28;20032;-83
2022/12/30 09:22:49;;;;;;;24.48;14.07;;;0.60;99.90;;;;;;5093233;28;20073;-81
2022/12/30 09:25:33;;;;;;;24.58;14.70;;;0.60;99.90;;;;;;5107194;28;20136;-80
2022/12/30 09:28:17;;;;;;;23.95;12.95;;;0.60;99.90;;;;;;5095415;28;20035;-80
2022/12/30 09:30:43;;;;;;;29.00;16.33;;;0.60;99.90;;;;;;5097396;28;20381;-80
2022/12/30 09:33:09;;;;;;;29.17;15.55;;;0.60;99.90;;;;;;5097773;28;20028;-81
2022/12/30 09:35:35;;;;;;;29.27;17.35;;;0.70;99.90;;;;;;5097814;28;20031;-82
2022/12/30 09:38:19;;;;;;;33.45;18.20;;;0.70;99.90;;;;;;5092600;28;20028;-85
2022/12/30 09:43:14;;;;;;;33.88;18.75;;;0.70;99.90;;;;;;5088797;28;20111;-83
2022/12/30 09:44:22;;;;;;;20.95;13.90;;;0.80;99.90;;;;;;5090810;28;20620;-83
2022/12/30 09:47:13;;;;;;;37.63;19.17;;;0.80;99.90;;;;;;5101236;28;20024;-83
2022/12/30 09:50:03;;;;;;;30.80;17.77;;;0.80;99.90;;;;;;5091930;28;20023;-84
2022/12/30 09:53:06;;;;;;;24.33;13.02;;;0.80;99.90;;;;;;5092400;28;20403;-83
2022/12/30 09:56:02;;;;;;;26.30;15.43;;;0.80;99.90;;;;;;5082994;28;20528;-77
2022/12/30 09:58:47;;;;;;;26.95;15.80;;;0.80;99.90;;;;;;5086850;28;20024;-78
2022/12/30 10:01:48;;;;;;;24.48;14.57;;;0.80;99.90;;;;;;5091927;28;20468;-77
2022/12/30 10:04:37;;;;;;;27.05;16.13;;;0.90;99.90;;;;;;5082635;28;20405;-80
2022/12/30 10:07:27;;;;;;;25.45;16.27;;;0.90;99.90;;;;;;5087785;28;20039;-83
2022/12/30 10:10:15;;;;;;;25.85;15.82;;;0.90;99.90;;;;;;5090755;28;20048;-81
2022/12/30 10:13:14;;;;;;;23.30;14.73;;;1.00;99.90;;;;;;5084297;28;20016;-82
2022/12/30 10:16:06;;;;;;;23.95;14.10;;;1.00;99.90;;;;;;5090136;28;20111;-80
2022/12/30 10:18:50;;;;;;;22.52;12.40;;;1.10;99.90;;;;;;5089056;28;20035;-85
2022/12/30 10:21:55;;;;;;;20.80;13.95;;;1.10;99.90;;;;;;5085237;28;20024;-81
2022/12/30 10:24:45;;;;;;;19.88;13.65;;;1.20;99.90;;;;;;5108947;28;20106;-79
2022/12/30 10:27:36;;;;;;;24.88;15.52;;;1.20;99.90;;;;;;5104918;28;20048;-80
2022/12/30 10:30:39;;;;;;;18.90;12.32;;;1.20;99.90;;;;;;5080949;28;20120;-84
2022/12/30 10:33:08;;;;;;;23.73;13.98;;;1.20;99.90;;;;;;5089487;28;20024;-82
2022/12/30 10:35:53;;;;;;;26.27;14.73;;;1.20;99.90;;;;;;5091652;28;20039;-81
2022/12/30 10:38:38;;;;;;;20.52;13.90;;;1.20;99.90;;;;;;5091991;28;20043;-81
2022/12/30 10:41:51;;;;;;;27.33;16.85;;;1.30;99.90;;;;;;5091386;28;20107;-81
2022/12/30 10:44:54;;;;;;;21.25;14.02;;;1.30;99.90;;;;;;5090003;28;20035;-82
2022/12/30 10:48:17;;;;;;;20.52;12.73;;;1.40;99.90;;;;;;5085693;28;20485;-84
2022/12/30 10:50:46;;;;;;;18.48;12.77;;;1.40;99.90;;;;;;5019417;28;20029;-85
2022/12/30 10:53:35;;;;;;;16.13;11.25;;;1.30;99.90;;;;;;5053081;28;20029;-82
2022/12/30 10:56:05;;;;;;;21.52;11.80;;;1.40;99.90;;;;;;5080646;28;20036;-82
2022/12/30 10:58:37;;;;;;;19.70;11.07;;;1.40;99.90;;;;;;5095658;28;20089;-81
2022/12/30 11:01:23;;;;;;;20.70;13.20;;;1.40;99.90;;;;;;5105325;28;20012;-83
2022/12/30 11:03:52;;;;;;;17.52;11.88;;;1.40;99.90;;;;;;5109205;28;20017;-84
2022/12/30 11:06:37;;;;;;;20.60;11.90;;;1.50;99.90;;;;;;5097648;28;20031;-85
2022/12/30 11:09:12;;;;;;;18.33;12.55;;;1.60;99.90;;;;;;5112627;28;20021;-83
2022/12/30 11:15:01;;;;;;;19.17;12.95;;;1.70;99.90;;;;;;5093289;28;20034;-85
2022/12/30 11:18:04;;;;;;;19.92;12.23;;;1.80;99.90;;;;;;5096943;28;20024;-84
2022/12/30 11:20:34;;;;;;;30.35;15.30;;;2.00;99.90;;;;;;5095982;28;20044;-82
2022/12/30 11:23:04;;;;;;;21.50;12.82;;;2.20;99.90;;;;;;5104667;28;20061;-82
2022/12/30 11:25:53;;;;;;;18.25;11.93;;;2.10;99.90;;;;;;5113993;28;20050;-83
2022/12/30 11:28:43;;;;;;;16.48;11.63;;;2.10;99.90;;;;;;5107065;28;20046;-83
2022/12/30 11:31:33;;;;;;;15.93;11.80;;;2.00;99.90;;;;;;5116887;28;20023;-88
2022/12/30 11:34:19;;;;;;;14.73;9.90;;;2.10;99.90;;;;;;5114607;28;20373;-86
2022/12/30 11:36:45;;;;;;;17.02;12.57;;;2.00;99.90;;;;;;5116310;28;20624;-84
2022/12/30 11:39:23;;;;;;;18.25;12.10;;;2.10;99.90;;;;;;5114800;28;20017;-86
2022/12/30 11:42:09;;;;;;;16.27;11.18;;;2.20;99.90;;;;;;5110828;28;20027;-86
2022/12/30 11:44:53;;;;;;;23.50;12.70;;;;;;;;;;5098326;28;20722;-87
2022/12/30 11:47:19;;;;;;;18.05;12.10;;;2.20;99.90;;;;;;5096031;28;20040;-86
2022/12/30 11:50:22;;;;;;;14.98;10.73;;;2.30;99.90;;;;;;5095728;28;20446;-84
2022/12/30 11:53:26;;;;;;;13.57;9.95;;;2.30;99.90;;;;;;5093943;28;20104;-86
2022/12/30 11:56:12;;;;;;;13.73;10.35;;;2.40;99.90;;;;;;5099118;28;20020;-85
2022/12/30 11:58:59;;;;;;;14.90;11.00;;;2.30;99.90;;;;;;5087402;28;20020;-84
2022/12/30 12:01:49;;;;;;;14.93;9.77;;;2.30;99.90;;;;;;5109369;28;20503;-84
2022/12/30 12:04:39;;;;;;;16.65;9.80;;;2.20;99.90;;;;;;5114479;28;20042;-85
2022/12/30 12:07:34;;;;;;;14.20;8.75;;;2.20;99.90;;;;;;5093062;28;20042;-84
2022/12/30 12:10:37;;;;;;;12.77;9.57;;;2.10;99.90;;;;;;5096929;28;20026;-86
2022/12/30 12:13:12;;;;;;;15.02;11.07;;;2.10;99.90;;;;;;5089551;28;20076;-88
2022/12/30 12:15:45;;;;;;;15.52;11.48;;;2.20;99.90;;;;;;5091206;28;20016;-85
2022/12/30 12:18:42;;;;;;;16.35;11.40;;;2.20;99.90;;;;;;5093329;28;20024;-83
2022/12/30 12:21:28;;;;;;;17.60;11.93;;;2.20;99.90;;;;;;5094743;28;20020;-89
2022/12/30 12:23:54;;;;;;;19.53;12.30;;;2.20;99.90;;;;;;5108016;28;20404;-83
2022/12/30 12:26:27;;;;;;;16.95;11.82;;;2.20;99.90;;;;;;5101560;28;20054;-86
2022/12/30 12:28:55;;;;;;;18.25;13.40;;;2.20;99.90;;;;;;5093952;28;20554;-83
2022/12/30 12:31:48;;;;;;;18.45;12.70;;;2.10;99.90;;;;;;5104936;28;20050;-84
2022/12/30 12:34:51;;;;;;;15.18;12.07;;;2.00;99.90;;;;;;5106611;28;20048;-84
2022/12/30 12:37:53;;;;;;;19.52;13.63;;;2.10;99.90;;;;;;5103972;28;20346;-84
2022/12/30 12:40:39;;;;;;;18.98;12.98;;;2.20;99.90;;;;;;5095765;28;20059;-85
2022/12/30 12:43:28;;;;;;;16.63;10.65;;;2.20;99.90;;;;;;5105498;28;20035;-86
2022/12/30 12:46:21;;;;;;;14.45;10.85;;;2.20;99.90;;;;;;5092215;28;20130;-84
2022/12/30 12:49:25;;;;;;;13.57;10.93;;;2.20;99.90;;;;;;5098959;28;20151;-84
2022/12/30 12:52:09;;;;;;;15.05;11.52;;;2.10;99.90;;;;;;5108884;28;20016;-85
2022/12/30 12:54:44;;;;;;;15.32;10.93;;;2.10;99.90;;;;;;5094843;28;20358;-84
2022/12/30 12:57:19;;;;;;;17.48;11.75;;;2.20;99.90;;;;;;5091600;28;20028;-82
2022/12/30 13:00:16;;;;;;;19.77;12.10;;;2.20;99.90;;;;;;5093100;28;20053;-84
2022/12/30 13:03:00;;;;;;;19.42;13.82;;;2.20;99.90;;;;;;5093010;28;20119;-85
2022/12/30 13:05:48;;;;;;;16.63;12.35;;;2.20;99.90;;;;;;5083651;28;20036;-86
2022/12/30 13:08:32;;;;;;;17.45;12.80;;;2.10;99.90;;;;;;5091197;28;20036;-85
2022/12/30 13:11:35;;;;;;;20.95;13.98;;;2.30;99.90;;;;;;5102858;28;20020;-85
2022/12/30 13:14:31;;;;;;;21.63;13.25;;;2.30;99.90;;;;;;5107390;28;20046;-85
2022/12/30 13:17:01;;;;;;;19.60;12.60;;;2.30;99.90;;;;;;5092964;28;20028;-83
2022/12/30 13:19:36;;;;;;;18.63;12.48;;;2.40;99.90;;;;;;5093473;28;20271;-85
2022/12/30 13:22:25;;;;;;;18.17;13.50;;;2.30;99.90;;;;;;5093836;28;20077;-83
2022/12/30 13:24:53;;;;;;;18.90;13.68;;;2.40;99.90;;;;;;5092323;28;20016;-81
2022/12/30 13:27:56;;;;;;;21.90;13.23;;;2.40;99.90;;;;;;5106501;28;20034;-86
2022/12/30 13:31:00;;;;;;;23.77;15.98;;;2.40;99.90;;;;;;5113094;28;20028;-82
2022/12/30 13:34:00;;;;;;;22.75;14.48;;;2.50;99.90;;;;;;5095100;28;20400;-85
2022/12/30 13:36:51;;;;;;;21.98;14.25;;;2.50;99.90;;;;;;5088727;28;20030;-84
2022/12/30 13:39:35;;;;;;;23.75;14.85;;;2.60;99.90;;;;;;5104914;28;20117;-85
2022/12/30 13:42:20;;;;;;;23.05;15.77;;;2.70;99.90;;;;;;5092864;28;20027;-83
2022/12/30 13:45:05;;;;;;;22.00;13.93;;;2.50;99.90;;;;;;5097104;28;20028;-84
2022/12/30 13:47:41;;;;;;;21.50;15.02;;;2.60;99.90;;;;;;5092290;28;20028;-82
2022/12/30 13:50:25;;;;;;;21.27;13.70;;;;;;;;;;5080986;28;20027;-84
2022/12/30 13:53:10;;;;;;;30.73;16.20;;;;;;;;;;5094950;28;20020;-83
2022/12/30 13:55:48;;;;;;;21.92;15.38;;;;;;;;;;5092718;28;20028;-84
2022/12/30 13:58:17;;;;;;;25.33;16.77;;;2.70;99.90;;;;;;5093401;28;20406;-82
2022/12/30 14:01:02;;;;;;;22.17;16.60;;;2.70;99.90;;;;;;5096689;28;20028;-82
2022/12/30 14:03:47;;;;;;;20.73;13.23;;;;;;;;;;5082875;28;20012;-83
2022/12/30 14:06:51;;;;;;;27.50;15.45;;;2.70;99.90;;;;;;5093086;28;20024;-82
2022/12/30 14:09:54;;;;;;;19.30;13.45;;;2.70;99.90;;;;;;5104593;28;20484;-84
2022/12/30 14:12:39;;;;;;;24.63;14.88;;;2.80;99.90;;;;;;5081733;28;20028;-87
2022/12/30 14:15:34;;;;;;;21.42;14.65;;;2.70;99.90;;;;;;5098400;28;20166;-85
2022/12/30 14:18:37;;;;;;;20.35;14.63;;;2.60;99.90;;;;;;5098584;28;20097;-85
2022/12/30 14:21:25;;;;;;;20.35;14.63;;;2.70;99.90;;;;;;5096565;28;20079;-88
2022/12/30 14:24:28;;;;;;;17.88;13.18;;;2.60;99.90;;;;;;5115492;28;20408;-89
2022/12/30 14:27:12;;;;;;;25.42;15.30;;;2.70;99.90;;;;;;5094520;28;20052;-86
2022/12/30 14:30:02;;;;;;;23.30;15.30;;;2.80;99.90;;;;;;5088547;28;20023;-86
2022/12/30 14:33:05;;;;;;;20.88;14.98;;;2.70;99.90;;;;;;5107831;28;20020;-88
2022/12/30 14:35:32;;;;;;;24.98;15.80;;;2.70;99.90;;;;;;5092990;28;20050;-88
2022/12/30 14:38:30;;;;;;;23.92;14.82;;;2.80;99.90;;;;;;5093121;28;20473;-86
2022/12/30 14:41:15;;;;;;;;;;;2.90;99.90;;;;;;5093999;28;20028;-88
2022/12/30 14:44:03;;;;;;;25.30;15.93;;;2.80;99.90;;;;;;5092753;28;19904;-88
2022/12/30 14:46:40;;;;;;;21.17;15.82;;;2.80;99.90;;;;;;5105443;28;20035;-87
2022/12/30 14:49:35;;;;;;;21.83;15.02;;;2.80;99.90;;;;;;5098284;28;20016;-84
2022/12/30 14:52:22;;;;;;;24.73;14.68;;;2.90;99.90;;;;;;5082495;28;20500;-83
2022/12/30 14:54:51;;;;;;;;;;;2.90;99.90;;;;;;5090126;28;20166;-83
2022/12/30 14:57:26;;;;;;;25.67;14.23;;;2.80;99.90;;;;;;5091818;28;20429;-82